sensor_id;sensor_type;location;lat;lon;timestamp;P1;P2;P0
65012;PMS5003;51715;39.432;-77.518;2022-12-07T00:01:06;27;26;
65012;PMS5003;51715;39.432;-77.518;2022-12-07T00:03:45;26;24;
65012;PMS5003;51715;39.432;-77.518;2022-12-07T00:06:24;17;17;
65012;PMS5003;51715;39.432;-77.518;2022-12-07T00:09:02;22;20;
65012;PMS5003;51715;39.432;-77.518;2022-12-07T00:11:42;23;23;
65012;PMS5003;51715;39.432;-77.518;2022-12-07T00:14:20;28;27;
65012;PMS5003;51715;39.432;-77.518;2022-12-07T00:16:57;28;26;
65012;PMS5003;51715;39.432;-77.518;2022-12-07T00:19:34;25;21;
65012;PMS5003;51715;39.432;-77.518;2022-12-07T00:22:11;29;26;
65012;PMS5003;51715;39.432;-77.518;2022-12-07T00:24:48;30;24;
65012;PMS5003;51715;39.432;-77.518;2022-12-07T00:27:27;20;20;
65012;PMS5003;51715;39.432;-77.518;2022-12-07T00:30:04;24;21;
65012;PMS5003;51715;39.432;-77.518;2022-12-07T00:32:42;20;17;
65012;PMS5003;51715;39.432;-77.518;2022-12-07T00:35:20;24;19;
65012;PMS5003;51715;39.432;-77.518;2022-12-07T00:37:59;20;19;
65012;PMS5003;51715;39.432;-77.518;2022-12-07T00:40:36;24;24;
65012;PMS5003;51715;39.432;-77.518;2022-12-07T00:43:14;21;20;
65012;PMS5003;51715;39.432;-77.518;2022-12-07T00:45:53;22;21;
65012;PMS5003;51715;39.432;-77.518;2022-12-07T00:48:31;21;20;
65012;PMS5003;51715;39.432;-77.518;2022-12-07T00:51:10;18;18;
65012;PMS5003;51715;39.432;-77.518;2022-12-07T00:53:51;27;25;
65012;PMS5003;51715;39.432;-77.518;2022-12-07T00:56:29;29;26;
65012;PMS5003;51715;39.432;-77.518;2022-12-07T00:59:10;25;23;
65012;PMS5003;51715;39.432;-77.518;2022-12-07T01:01:50;28;24;
65012;PMS5003;51715;39.432;-77.518;2022-12-07T01:04:28;30;29;
65012;PMS5003;51715;39.432;-77.518;2022-12-07T01:07:06;29;24;
65012;PMS5003;51715;39.432;-77.518;2022-12-07T01:09:43;34;28;
65012;PMS5003;51715;39.432;-77.518;2022-12-07T01:12:22;26;22;
65012;PMS5003;51715;39.432;-77.518;2022-12-07T01:15:00;29;28;
65012;PMS5003;51715;39.432;-77.518;2022-12-07T01:17:39;26;24;
65012;PMS5003;51715;39.432;-77.518;2022-12-07T01:20:18;26;25;
65012;PMS5003;51715;39.432;-77.518;2022-12-07T01:22:56;29;23;
65012;PMS5003;51715;39.432;-77.518;2022-12-07T01:25:34;29;24;
65012;PMS5003;51715;39.432;-77.518;2022-12-07T01:28:12;27;27;
65012;PMS5003;51715;39.432;-77.518;2022-12-07T01:30:58;29;27;
65012;PMS5003;51715;39.432;-77.518;2022-12-07T01:33:38;29;23;
65012;PMS5003;51715;39.432;-77.518;2022-12-07T01:36:18;18;18;
65012;PMS5003;51715;39.432;-77.518;2022-12-07T01:38:58;29;28;
65012;PMS5003;51715;39.432;-77.518;2022-12-07T01:41:39;30;25;
65012;PMS5003;51715;39.432;-77.518;2022-12-07T01:44:19;23;21;
65012;PMS5003;51715;39.432;-77.518;2022-12-07T01:46:59;26;25;
65012;PMS5003;51715;39.432;-77.518;2022-12-07T01:49:39;25;23;
65012;PMS5003;51715;39.432;-77.518;2022-12-07T01:52:21;30;28;
65012;PMS5003;51715;39.432;-77.518;2022-12-07T01:55:03;19;17;
65012;PMS5003;51715;39.432;-77.518;2022-12-07T01:57:45;23;22;
65012;PMS5003;51715;39.432;-77.518;2022-12-07T02:00:25;24;20;
65012;PMS5003;51715;39.432;-77.518;2022-12-07T02:03:04;32;29;
65012;PMS5003;51715;39.432;-77.518;2022-12-07T02:05:47;29;29;
65012;PMS5003;51715;39.432;-77.518;2022-12-07T02:08:28;33;30;
65012;PMS5003;51715;39.432;-77.518;2022-12-07T02:11:07;18;18;
65012;PMS5003;51715;39.432;-77.518;2022-12-07T02:13:46;27;22;
65012;PMS5003;51715;39.432;-77.518;2022-12-07T02:16:27;22;22;
65012;PMS5003;51715;39.432;-77.518;2022-12-07T02:19:20;27;26;
65012;PMS5003;51715;39.432;-77.518;2022-12-07T02:22:22;24;24;
65012;PMS5003;51715;39.432;-77.518;2022-12-07T02:25:22;27;22;
65012;PMS5003;51715;39.432;-77.518;2022-12-07T02:28:15;27;25;
65012;PMS5003;51715;39.432;-77.518;2022-12-07T02:31:01;27;26;
65012;PMS5003;51715;39.432;-77.518;2022-12-07T02:33:46;25;23;
65012;PMS5003;51715;39.432;-77.518;2022-12-07T02:36:30;23;23;
65012;PMS5003;51715;39.432;-77.518;2022-12-07T02:39:16;28;27;
65012;PMS5003;51715;39.432;-77.518;2022-12-07T02:42:06;27;26;
65012;PMS5003;51715;39.432;-77.518;2022-12-07T02:44:50;29;27;
65012;PMS5003;51715;39.432;-77.518;2022-12-07T02:47:29;27;25;
65012;PMS5003;51715;39.432;-77.518;2022-12-07T02:50:09;25;24;
65012;PMS5003;51715;39.432;-77.518;2022-12-07T02:52:49;24;22;
65012;PMS5003;51715;39.432;-77.518;2022-12-07T02:55:30;27;25;
65012;PMS5003;51715;39.432;-77.518;2022-12-07T02:58:16;23;22;
65012;PMS5003;51715;39.432;-77.518;2022-12-07T03:01:04;22;21;
65012;PMS5003;51715;39.432;-77.518;2022-12-07T03:03:54;21;21;
65012;PMS5003;51715;39.432;-77.518;2022-12-07T03:06:48;31;29;
65012;PMS5003;51715;39.432;-77.518;2022-12-07T03:09:32;26;23;
65012;PMS5003;51715;39.432;-77.518;2022-12-07T03:12:17;25;23;
65012;PMS5003;51715;39.432;-77.518;2022-12-07T03:15:03;23;21;
65012;PMS5003;51715;39.432;-77.518;2022-12-07T03:17:46;22;21;
65012;PMS5003;51715;39.432;-77.518;2022-12-07T03:20:27;20;19;
65012;PMS5003;51715;39.432;-77.518;2022-12-07T03:23:08;25;23;
65012;PMS5003;51715;39.432;-77.518;2022-12-07T03:25:50;32;27;
65012;PMS5003;51715;39.432;-77.518;2022-12-07T03:28:33;21;21;
65012;PMS5003;51715;39.432;-77.518;2022-12-07T03:31:17;24;22;
65012;PMS5003;51715;39.432;-77.518;2022-12-07T03:33:59;26;23;
65012;PMS5003;51715;39.432;-77.518;2022-12-07T03:36:43;27;24;
65012;PMS5003;51715;39.432;-77.518;2022-12-07T03:39:29;28;28;
65012;PMS5003;51715;39.432;-77.518;2022-12-07T03:42:13;30;26;
65012;PMS5003;51715;39.432;-77.518;2022-12-07T03:44:52;22;22;
65012;PMS5003;51715;39.432;-77.518;2022-12-07T03:47:33;28;24;
65012;PMS5003;51715;39.432;-77.518;2022-12-07T03:50:21;28;27;
65012;PMS5003;51715;39.432;-77.518;2022-12-07T03:53:05;27;24;
65012;PMS5003;51715;39.432;-77.518;2022-12-07T03:55:49;24;24;
65012;PMS5003;51715;39.432;-77.518;2022-12-07T03:56:03;30;27;
65012;PMS5003;51715;39.432;-77.518;2022-12-07T03:58:43;24;24;
65012;PMS5003;51715;39.432;-77.518;2022-12-07T04:01:22;20;19;
65012;PMS5003;51715;39.432;-77.518;2022-12-07T04:04:00;22;22;
65012;PMS5003;51715;39.432;-77.518;2022-12-07T04:06:38;28;26;
65012;PMS5003;51715;39.432;-77.518;2022-12-07T04:09:16;22;21;
65012;PMS5003;51715;39.432;-77.518;2022-12-07T04:11:55;22;19;
65012;PMS5003;51715;39.432;-77.518;2022-12-07T04:14:33;23;20;
65012;PMS5003;51715;39.432;-77.518;2022-12-07T04:17:12;25;22;
65012;PMS5003;51715;39.432;-77.518;2022-12-07T04:19:50;26;24;
65012;PMS5003;51715;39.432;-77.518;2022-12-07T04:22:28;22;21;
65012;PMS5003;51715;39.432;-77.518;2022-12-07T04:25:06;21;19;
65012;PMS5003;51715;39.432;-77.518;2022-12-07T04:27:45;20;20;
65012;PMS5003;51715;39.432;-77.518;2022-12-07T04:30:23;25;23;
65012;PMS5003;51715;39.432;-77.518;2022-12-07T04:33:00;21;21;
65012;PMS5003;51715;39.432;-77.518;2022-12-07T04:35:38;26;21;
65012;PMS5003;51715;39.432;-77.518;2022-12-07T04:38:17;21;21;
65012;PMS5003;51715;39.432;-77.518;2022-12-07T04:40:55;25;21;
65012;PMS5003;51715;39.432;-77.518;2022-12-07T04:43:36;17;16;
65012;PMS5003;51715;39.432;-77.518;2022-12-07T04:46:14;22;22;
65012;PMS5003;51715;39.432;-77.518;2022-12-07T04:48:53;20;20;
65012;PMS5003;51715;39.432;-77.518;2022-12-07T04:51:32;22;19;
65012;PMS5003;51715;39.432;-77.518;2022-12-07T04:54:10;28;22;
65012;PMS5003;51715;39.432;-77.518;2022-12-07T04:56:48;19;16;
65012;PMS5003;51715;39.432;-77.518;2022-12-07T04:59:27;29;27;
65012;PMS5003;51715;39.432;-77.518;2022-12-07T05:03:54;24;22;
65012;PMS5003;51715;39.432;-77.518;2022-12-07T05:06:23;17;16;
65012;PMS5003;51715;39.432;-77.518;2022-12-07T05:08:52;23;23;
65012;PMS5003;51715;39.432;-77.518;2022-12-07T05:11:21;25;24;
65012;PMS5003;51715;39.432;-77.518;2022-12-07T05:13:50;24;23;
65012;PMS5003;51715;39.432;-77.518;2022-12-07T05:16:17;21;19;
65012;PMS5003;51715;39.432;-77.518;2022-12-07T05:18:46;21;20;
65012;PMS5003;51715;39.432;-77.518;2022-12-07T05:21:14;15;15;
65012;PMS5003;51715;39.432;-77.518;2022-12-07T05:23:42;21;16;
65012;PMS5003;51715;39.432;-77.518;2022-12-07T05:26:10;23;20;
65012;PMS5003;51715;39.432;-77.518;2022-12-07T05:28:38;21;19;
65012;PMS5003;51715;39.432;-77.518;2022-12-07T05:31:07;25;20;
65012;PMS5003;51715;39.432;-77.518;2022-12-07T05:33:36;19;18;
65012;PMS5003;51715;39.432;-77.518;2022-12-07T05:36:04;23;22;
65012;PMS5003;51715;39.432;-77.518;2022-12-07T05:38:33;19;18;
65012;PMS5003;51715;39.432;-77.518;2022-12-07T05:41:02;22;21;
65012;PMS5003;51715;39.432;-77.518;2022-12-07T05:43:32;17;17;
65012;PMS5003;51715;39.432;-77.518;2022-12-07T05:46:00;19;18;
65012;PMS5003;51715;39.432;-77.518;2022-12-07T05:48:29;18;15;
65012;PMS5003;51715;39.432;-77.518;2022-12-07T05:50:56;21;18;
65012;PMS5003;51715;39.432;-77.518;2022-12-07T05:53:26;23;20;
65012;PMS5003;51715;39.432;-77.518;2022-12-07T05:55:54;19;17;
65012;PMS5003;51715;39.432;-77.518;2022-12-07T05:58:23;18;16;
65012;PMS5003;51715;39.432;-77.518;2022-12-07T06:00:53;19;16;
65012;PMS5003;51715;39.432;-77.518;2022-12-07T06:03:22;23;20;
65012;PMS5003;51715;39.432;-77.518;2022-12-07T06:05:55;20;18;
65012;PMS5003;51715;39.432;-77.518;2022-12-07T06:08:24;23;19;
65012;PMS5003;51715;39.432;-77.518;2022-12-07T06:10:52;23;22;
65012;PMS5003;51715;39.432;-77.518;2022-12-07T06:13:20;22;18;
65012;PMS5003;51715;39.432;-77.518;2022-12-07T06:15:49;27;23;
65012;PMS5003;51715;39.432;-77.518;2022-12-07T06:18:18;16;14;
65012;PMS5003;51715;39.432;-77.518;2022-12-07T06:20:46;24;22;
65012;PMS5003;51715;39.432;-77.518;2022-12-07T06:23:15;19;17;
65012;PMS5003;51715;39.432;-77.518;2022-12-07T06:25:45;20;17;
65012;PMS5003;51715;39.432;-77.518;2022-12-07T06:28:13;20;20;
65012;PMS5003;51715;39.432;-77.518;2022-12-07T06:30:42;24;22;
65012;PMS5003;51715;39.432;-77.518;2022-12-07T06:33:10;21;21;
65012;PMS5003;51715;39.432;-77.518;2022-12-07T06:35:39;27;20;
65012;PMS5003;51715;39.432;-77.518;2022-12-07T06:38:08;21;18;
65012;PMS5003;51715;39.432;-77.518;2022-12-07T06:40:37;15;14;
65012;PMS5003;51715;39.432;-77.518;2022-12-07T06:43:04;20;17;
65012;PMS5003;51715;39.432;-77.518;2022-12-07T06:45:33;19;17;
65012;PMS5003;51715;39.432;-77.518;2022-12-07T06:48:01;18;18;
65012;PMS5003;51715;39.432;-77.518;2022-12-07T06:50:30;15;15;
65012;PMS5003;51715;39.432;-77.518;2022-12-07T06:52:58;18;17;
65012;PMS5003;51715;39.432;-77.518;2022-12-07T06:55:27;23;20;
65012;PMS5003;51715;39.432;-77.518;2022-12-07T06:57:55;24;23;
65012;PMS5003;51715;39.432;-77.518;2022-12-07T07:00:23;20;19;
65012;PMS5003;51715;39.432;-77.518;2022-12-07T07:02:52;20;19;
65012;PMS5003;51715;39.432;-77.518;2022-12-07T07:05:20;16;15;
65012;PMS5003;51715;39.432;-77.518;2022-12-07T07:07:48;15;12;
65012;PMS5003;51715;39.432;-77.518;2022-12-07T07:10:17;18;16;
65012;PMS5003;51715;39.432;-77.518;2022-12-07T07:12:45;19;19;
65012;PMS5003;51715;39.432;-77.518;2022-12-07T07:15:14;15;14;
65012;PMS5003;51715;39.432;-77.518;2022-12-07T07:17:42;16;15;
65012;PMS5003;51715;39.432;-77.518;2022-12-07T07:20:10;18;17;
65012;PMS5003;51715;39.432;-77.518;2022-12-07T07:22:38;23;17;
65012;PMS5003;51715;39.432;-77.518;2022-12-07T07:25:07;18;16;
65012;PMS5003;51715;39.432;-77.518;2022-12-07T07:27:36;17;12;
65012;PMS5003;51715;39.432;-77.518;2022-12-07T07:30:04;13;13;
65012;PMS5003;51715;39.432;-77.518;2022-12-07T07:32:33;15;12;
65012;PMS5003;51715;39.432;-77.518;2022-12-07T07:35:02;15;12;
65012;PMS5003;51715;39.432;-77.518;2022-12-07T07:37:30;18;15;
65012;PMS5003;51715;39.432;-77.518;2022-12-07T07:39:58;14;11;
65012;PMS5003;51715;39.432;-77.518;2022-12-07T07:42:27;14;14;
65012;PMS5003;51715;39.432;-77.518;2022-12-07T07:44:55;14;12;
65012;PMS5003;51715;39.432;-77.518;2022-12-07T07:47:23;15;13;
65012;PMS5003;51715;39.432;-77.518;2022-12-07T07:49:52;11;11;
65012;PMS5003;51715;39.432;-77.518;2022-12-07T07:52:20;17;15;
65012;PMS5003;51715;39.432;-77.518;2022-12-07T07:54:48;13;13;
65012;PMS5003;51715;39.432;-77.518;2022-12-07T07:57:17;13;13;
65012;PMS5003;51715;39.432;-77.518;2022-12-07T07:59:46;16;15;
65012;PMS5003;51715;39.432;-77.518;2022-12-07T08:02:15;9;9;
65012;PMS5003;51715;39.432;-77.518;2022-12-07T08:04:44;15;14;
65012;PMS5003;51715;39.432;-77.518;2022-12-07T08:07:13;19;16;
65012;PMS5003;51715;39.432;-77.518;2022-12-07T08:09:41;17;15;
65012;PMS5003;51715;39.432;-77.518;2022-12-07T08:12:10;13;13;
65012;PMS5003;51715;39.432;-77.518;2022-12-07T08:14:39;18;14;
65012;PMS5003;51715;39.432;-77.518;2022-12-07T08:17:07;16;13;
65012;PMS5003;51715;39.432;-77.518;2022-12-07T08:19:35;13;10;
65012;PMS5003;51715;39.432;-77.518;2022-12-07T08:22:03;13;11;
65012;PMS5003;51715;39.432;-77.518;2022-12-07T08:24:33;14;14;
65012;PMS5003;51715;39.432;-77.518;2022-12-07T08:27:02;14;13;
65012;PMS5003;51715;39.432;-77.518;2022-12-07T08:29:31;14;13;
65012;PMS5003;51715;39.432;-77.518;2022-12-07T08:31:59;10;9;
65012;PMS5003;51715;39.432;-77.518;2022-12-07T08:34:27;12;11;
65012;PMS5003;51715;39.432;-77.518;2022-12-07T08:36:55;14;11;
65012;PMS5003;51715;39.432;-77.518;2022-12-07T08:39:23;11;11;
65012;PMS5003;51715;39.432;-77.518;2022-12-07T08:41:52;12;9;
65012;PMS5003;51715;39.432;-77.518;2022-12-07T08:44:20;19;15;
65012;PMS5003;51715;39.432;-77.518;2022-12-07T08:46:49;12;12;
65012;PMS5003;51715;39.432;-77.518;2022-12-07T08:49:20;10;10;
65012;PMS5003;51715;39.432;-77.518;2022-12-07T08:51:53;13;11;
65012;PMS5003;51715;39.432;-77.518;2022-12-07T08:54:22;15;12;
65012;PMS5003;51715;39.432;-77.518;2022-12-07T08:56:50;11;11;
65012;PMS5003;51715;39.432;-77.518;2022-12-07T08:59:20;16;13;
65012;PMS5003;51715;39.432;-77.518;2022-12-07T09:01:48;14;12;
65012;PMS5003;51715;39.432;-77.518;2022-12-07T09:04:17;12;11;
65012;PMS5003;51715;39.432;-77.518;2022-12-07T09:06:45;13;10;
65012;PMS5003;51715;39.432;-77.518;2022-12-07T09:09:14;9;9;
65012;PMS5003;51715;39.432;-77.518;2022-12-07T09:11:42;12;10;
65012;PMS5003;51715;39.432;-77.518;2022-12-07T09:14:11;14;13;
65012;PMS5003;51715;39.432;-77.518;2022-12-07T09:16:39;12;12;
65012;PMS5003;51715;39.432;-77.518;2022-12-07T09:19:09;10;10;
65012;PMS5003;51715;39.432;-77.518;2022-12-07T09:21:37;13;12;
65012;PMS5003;51715;39.432;-77.518;2022-12-07T09:24:06;9;9;
65012;PMS5003;51715;39.432;-77.518;2022-12-07T09:26:35;10;10;
65012;PMS5003;51715;39.432;-77.518;2022-12-07T09:29:03;13;11;
65012;PMS5003;51715;39.432;-77.518;2022-12-07T09:31:32;10;10;
65012;PMS5003;51715;39.432;-77.518;2022-12-07T09:34:02;18;17;
65012;PMS5003;51715;39.432;-77.518;2022-12-07T09:36:31;15;15;
65012;PMS5003;51715;39.432;-77.518;2022-12-07T09:39:00;17;11;
65012;PMS5003;51715;39.432;-77.518;2022-12-07T09:41:29;15;12;
65012;PMS5003;51715;39.432;-77.518;2022-12-07T09:44:02;12;11;
65012;PMS5003;51715;39.432;-77.518;2022-12-07T09:46:33;15;14;
65012;PMS5003;51715;39.432;-77.518;2022-12-07T09:49:05;13;13;
65012;PMS5003;51715;39.432;-77.518;2022-12-07T09:51:39;8;8;
65012;PMS5003;51715;39.432;-77.518;2022-12-07T09:54:08;10;10;
65012;PMS5003;51715;39.432;-77.518;2022-12-07T09:56:40;10;9;
65012;PMS5003;51715;39.432;-77.518;2022-12-07T09:59:12;17;13;
65012;PMS5003;51715;39.432;-77.518;2022-12-07T10:01:45;10;9;
65012;PMS5003;51715;39.432;-77.518;2022-12-07T10:04:15;15;14;
65012;PMS5003;51715;39.432;-77.518;2022-12-07T10:06:45;13;11;
65012;PMS5003;51715;39.432;-77.518;2022-12-07T10:09:15;15;13;
65012;PMS5003;51715;39.432;-77.518;2022-12-07T10:12:01;12;9;
65012;PMS5003;51715;39.432;-77.518;2022-12-07T10:14:33;13;12;
65012;PMS5003;51715;39.432;-77.518;2022-12-07T10:17:08;12;10;
65012;PMS5003;51715;39.432;-77.518;2022-12-07T10:20:17;15;14;
65012;PMS5003;51715;39.432;-77.518;2022-12-07T10:22:56;15;12;
65012;PMS5003;51715;39.432;-77.518;2022-12-07T10:25:27;14;14;
65012;PMS5003;51715;39.432;-77.518;2022-12-07T10:27:58;14;11;
65012;PMS5003;51715;39.432;-77.518;2022-12-07T10:30:28;19;17;
65012;PMS5003;51715;39.432;-77.518;2022-12-07T10:32:58;14;12;
65012;PMS5003;51715;39.432;-77.518;2022-12-07T10:35:28;12;10;
65012;PMS5003;51715;39.432;-77.518;2022-12-07T10:37:57;13;8;
65012;PMS5003;51715;39.432;-77.518;2022-12-07T10:40:29;12;12;
65012;PMS5003;51715;39.432;-77.518;2022-12-07T10:43:02;12;12;
65012;PMS5003;51715;39.432;-77.518;2022-12-07T10:45:34;16;14;
65012;PMS5003;51715;39.432;-77.518;2022-12-07T10:48:10;12;11;
65012;PMS5003;51715;39.432;-77.518;2022-12-07T10:50:48;15;15;
65012;PMS5003;51715;39.432;-77.518;2022-12-07T10:53:34;14;12;
65012;PMS5003;51715;39.432;-77.518;2022-12-07T10:56:19;14;10;
65012;PMS5003;51715;39.432;-77.518;2022-12-07T10:59:19;8;7;
65012;PMS5003;51715;39.432;-77.518;2022-12-07T11:02:46;14;14;
65012;PMS5003;51715;39.432;-77.518;2022-12-07T11:05:31;10;10;
65012;PMS5003;51715;39.432;-77.518;2022-12-07T11:08:11;11;10;
65012;PMS5003;51715;39.432;-77.518;2022-12-07T11:10:47;9;7;
65012;PMS5003;51715;39.432;-77.518;2022-12-07T11:13:23;12;12;
65012;PMS5003;51715;39.432;-77.518;2022-12-07T11:16:01;7;7;
65012;PMS5003;51715;39.432;-77.518;2022-12-07T11:18:43;15;11;
65012;PMS5003;51715;39.432;-77.518;2022-12-07T11:21:20;17;11;
65012;PMS5003;51715;39.432;-77.518;2022-12-07T11:24:01;13;9;
65012;PMS5003;51715;39.432;-77.518;2022-12-07T11:26:38;9;9;
65012;PMS5003;51715;39.432;-77.518;2022-12-07T11:29:23;19;16;
65012;PMS5003;51715;39.432;-77.518;2022-12-07T11:32:03;11;11;
65012;PMS5003;51715;39.432;-77.518;2022-12-07T11:34:39;20;15;
65012;PMS5003;51715;39.432;-77.518;2022-12-07T11:37:16;12;11;
65012;PMS5003;51715;39.432;-77.518;2022-12-07T11:39:49;22;19;
65012;PMS5003;51715;39.432;-77.518;2022-12-07T11:42:22;18;17;
65012;PMS5003;51715;39.432;-77.518;2022-12-07T11:44:56;24;21;
65012;PMS5003;51715;39.432;-77.518;2022-12-07T11:47:30;18;18;
65012;PMS5003;51715;39.432;-77.518;2022-12-07T11:50:13;20;19;
65012;PMS5003;51715;39.432;-77.518;2022-12-07T11:52:51;21;18;
65012;PMS5003;51715;39.432;-77.518;2022-12-07T11:55:26;11;11;
65012;PMS5003;51715;39.432;-77.518;2022-12-07T11:58:00;16;14;
65012;PMS5003;51715;39.432;-77.518;2022-12-07T12:00:31;14;13;
65012;PMS5003;51715;39.432;-77.518;2022-12-07T12:03:04;18;18;
65012;PMS5003;51715;39.432;-77.518;2022-12-07T12:05:40;12;12;
65012;PMS5003;51715;39.432;-77.518;2022-12-07T12:08:12;7;7;
65012;PMS5003;51715;39.432;-77.518;2022-12-07T12:10:45;11;11;
65012;PMS5003;51715;39.432;-77.518;2022-12-07T12:13:26;11;11;
65012;PMS5003;51715;39.432;-77.518;2022-12-07T12:16:16;9;9;
65012;PMS5003;51715;39.432;-77.518;2022-12-07T12:19:04;11;9;
65012;PMS5003;51715;39.432;-77.518;2022-12-07T12:21:53;12;11;
65012;PMS5003;51715;39.432;-77.518;2022-12-07T12:24:25;7;7;
65012;PMS5003;51715;39.432;-77.518;2022-12-07T12:26:59;11;8;
65012;PMS5003;51715;39.432;-77.518;2022-12-07T12:29:32;8;7;
65012;PMS5003;51715;39.432;-77.518;2022-12-07T12:32:05;8;6;
65012;PMS5003;51715;39.432;-77.518;2022-12-07T12:34:41;9;8;
65012;PMS5003;51715;39.432;-77.518;2022-12-07T12:37:42;7;7;
65012;PMS5003;51715;39.432;-77.518;2022-12-07T12:41:03;12;9;
65012;PMS5003;51715;39.432;-77.518;2022-12-07T12:44:08;8;7;
65012;PMS5003;51715;39.432;-77.518;2022-12-07T12:47:37;8;8;
65012;PMS5003;51715;39.432;-77.518;2022-12-07T12:50:26;11;9;
65012;PMS5003;51715;39.432;-77.518;2022-12-07T12:52:58;10;10;
65012;PMS5003;51715;39.432;-77.518;2022-12-07T12:56:34;9;7;
65012;PMS5003;51715;39.432;-77.518;2022-12-07T12:59:18;8;6;
65012;PMS5003;51715;39.432;-77.518;2022-12-07T13:01:51;9;7;
65012;PMS5003;51715;39.432;-77.518;2022-12-07T13:04:48;6;6;
65012;PMS5003;51715;39.432;-77.518;2022-12-07T13:07:55;5;5;
65012;PMS5003;51715;39.432;-77.518;2022-12-07T13:10:36;6;6;
65012;PMS5003;51715;39.432;-77.518;2022-12-07T13:13:41;9;9;
65012;PMS5003;51715;39.432;-77.518;2022-12-07T13:16:42;8;8;
65012;PMS5003;51715;39.432;-77.518;2022-12-07T13:19:53;5;5;
65012;PMS5003;51715;39.432;-77.518;2022-12-07T13:22:39;8;7;
65012;PMS5003;51715;39.432;-77.518;2022-12-07T13:25:12;4;4;
65012;PMS5003;51715;39.432;-77.518;2022-12-07T13:27:52;8;8;
65012;PMS5003;51715;39.432;-77.518;2022-12-07T13:30:24;6;6;
65012;PMS5003;51715;39.432;-77.518;2022-12-07T13:32:59;8;7;
65012;PMS5003;51715;39.432;-77.518;2022-12-07T13:35:31;11;9;
65012;PMS5003;51715;39.432;-77.518;2022-12-07T13:38:02;8;8;
65012;PMS5003;51715;39.432;-77.518;2022-12-07T13:40:42;11;11;
65012;PMS5003;51715;39.432;-77.518;2022-12-07T13:43:26;9;9;
65012;PMS5003;51715;39.432;-77.518;2022-12-07T13:45:56;8;8;
65012;PMS5003;51715;39.432;-77.518;2022-12-07T13:48:27;6;6;
65012;PMS5003;51715;39.432;-77.518;2022-12-07T13:51:00;12;10;
65012;PMS5003;51715;39.432;-77.518;2022-12-07T13:53:30;9;8;
65012;PMS5003;51715;39.432;-77.518;2022-12-07T13:55:59;10;9;
65012;PMS5003;51715;39.432;-77.518;2022-12-07T13:58:30;9;7;
65012;PMS5003;51715;39.432;-77.518;2022-12-07T14:01:00;10;8;
65012;PMS5003;51715;39.432;-77.518;2022-12-07T14:03:30;11;9;
65012;PMS5003;51715;39.432;-77.518;2022-12-07T14:06:04;8;8;
65012;PMS5003;51715;39.432;-77.518;2022-12-07T14:08:39;7;7;
65012;PMS5003;51715;39.432;-77.518;2022-12-07T14:11:09;9;7;
65012;PMS5003;51715;39.432;-77.518;2022-12-07T14:13:51;9;7;
65012;PMS5003;51715;39.432;-77.518;2022-12-07T14:16:26;11;11;
65012;PMS5003;51715;39.432;-77.518;2022-12-07T14:18:57;12;10;
65012;PMS5003;51715;39.432;-77.518;2022-12-07T14:21:27;9;7;
65012;PMS5003;51715;39.432;-77.518;2022-12-07T14:24:10;9;7;
65012;PMS5003;51715;39.432;-77.518;2022-12-07T14:26:42;7;6;
65012;PMS5003;51715;39.432;-77.518;2022-12-07T14:29:19;8;8;
65012;PMS5003;51715;39.432;-77.518;2022-12-07T14:31:49;8;8;
65012;PMS5003;51715;39.432;-77.518;2022-12-07T14:34:19;10;9;
65012;PMS5003;51715;39.432;-77.518;2022-12-07T14:36:50;11;9;
65012;PMS5003;51715;39.432;-77.518;2022-12-07T14:39:17;12;11;
65012;PMS5003;51715;39.432;-77.518;2022-12-07T14:41:46;11;9;
65012;PMS5003;51715;39.432;-77.518;2022-12-07T14:44:14;8;8;
65012;PMS5003;51715;39.432;-77.518;2022-12-07T14:46:43;10;10;
65012;PMS5003;51715;39.432;-77.518;2022-12-07T14:49:11;14;11;
65012;PMS5003;51715;39.432;-77.518;2022-12-07T14:51:40;13;13;
65012;PMS5003;51715;39.432;-77.518;2022-12-07T14:54:13;12;11;
65012;PMS5003;51715;39.432;-77.518;2022-12-07T14:56:44;9;9;
65012;PMS5003;51715;39.432;-77.518;2022-12-07T14:59:12;8;7;
65012;PMS5003;51715;39.432;-77.518;2022-12-07T15:01:41;12;11;
65012;PMS5003;51715;39.432;-77.518;2022-12-07T15:04:09;11;10;
65012;PMS5003;51715;39.432;-77.518;2022-12-07T15:06:36;12;11;
65012;PMS5003;51715;39.432;-77.518;2022-12-07T15:09:06;11;11;
65012;PMS5003;51715;39.432;-77.518;2022-12-07T15:11:36;6;6;
65012;PMS5003;51715;39.432;-77.518;2022-12-07T15:14:04;14;11;
65012;PMS5003;51715;39.432;-77.518;2022-12-07T15:16:33;12;9;
65012;PMS5003;51715;39.432;-77.518;2022-12-07T15:19:03;10;9;
65012;PMS5003;51715;39.432;-77.518;2022-12-07T15:21:33;15;12;
65012;PMS5003;51715;39.432;-77.518;2022-12-07T15:24:01;12;12;
65012;PMS5003;51715;39.432;-77.518;2022-12-07T15:26:31;12;12;
65012;PMS5003;51715;39.432;-77.518;2022-12-07T15:28:59;11;10;
65012;PMS5003;51715;39.432;-77.518;2022-12-07T15:31:27;11;11;
65012;PMS5003;51715;39.432;-77.518;2022-12-07T15:33:56;16;16;
65012;PMS5003;51715;39.432;-77.518;2022-12-07T15:36:25;27;25;
65012;PMS5003;51715;39.432;-77.518;2022-12-07T15:38:55;23;21;
65012;PMS5003;51715;39.432;-77.518;2022-12-07T15:41:24;27;25;
65012;PMS5003;51715;39.432;-77.518;2022-12-07T15:43:52;31;30;
65012;PMS5003;51715;39.432;-77.518;2022-12-07T15:46:21;30;28;
65012;PMS5003;51715;39.432;-77.518;2022-12-07T15:48:50;28;27;
65012;PMS5003;51715;39.432;-77.518;2022-12-07T15:51:18;35;30;
65012;PMS5003;51715;39.432;-77.518;2022-12-07T15:53:47;33;30;
65012;PMS5003;51715;39.432;-77.518;2022-12-07T15:56:16;24;24;
65012;PMS5003;51715;39.432;-77.518;2022-12-07T15:58:44;23;22;
65012;PMS5003;51715;39.432;-77.518;2022-12-07T16:01:13;22;20;
65012;PMS5003;51715;39.432;-77.518;2022-12-07T16:03:42;26;25;
65012;PMS5003;51715;39.432;-77.518;2022-12-07T16:06:12;29;28;
65012;PMS5003;51715;39.432;-77.518;2022-12-07T16:08:43;28;27;
65012;PMS5003;51715;39.432;-77.518;2022-12-07T16:11:12;29;28;
65012;PMS5003;51715;39.432;-77.518;2022-12-07T16:13:42;13;13;
65012;PMS5003;51715;39.432;-77.518;2022-12-07T16:16:11;12;12;
65012;PMS5003;51715;39.432;-77.518;2022-12-07T16:18:42;10;9;
65012;PMS5003;51715;39.432;-77.518;2022-12-07T16:21:13;10;10;
65012;PMS5003;51715;39.432;-77.518;2022-12-07T16:23:43;10;10;
65012;PMS5003;51715;39.432;-77.518;2022-12-07T16:26:13;21;18;
65012;PMS5003;51715;39.432;-77.518;2022-12-07T16:28:48;19;18;
65012;PMS5003;51715;39.432;-77.518;2022-12-07T16:31:19;26;24;
65012;PMS5003;51715;39.432;-77.518;2022-12-07T16:33:49;28;27;
65012;PMS5003;51715;39.432;-77.518;2022-12-07T16:36:20;27;27;
65012;PMS5003;51715;39.432;-77.518;2022-12-07T16:38:49;28;28;
65012;PMS5003;51715;39.432;-77.518;2022-12-07T16:41:19;29;25;
65012;PMS5003;51715;39.432;-77.518;2022-12-07T16:43:47;26;24;